sensor_id;sensor_type;location;lat;lon;timestamp;temperature;humidity
14192;DHT22;7177;48.572;7.838;2022-12-13T00:02:04;-5.10;99.90
14192;DHT22;7177;48.572;7.838;2022-12-13T00:04:30;-5.10;99.90
14192;DHT22;7177;48.572;7.838;2022-12-13T00:06:55;-5.10;99.90
14192;DHT22;7177;48.572;7.838;2022-12-13T00:09:21;-5.10;99.90
14192;DHT22;7177;48.572;7.838;2022-12-13T00:11:48;-5.00;99.90
14192;DHT22;7177;48.572;7.838;2022-12-13T00:14:14;-5.00;99.90
14192;DHT22;7177;48.572;7.838;2022-12-13T00:16:43;-5.00;99.90
14192;DHT22;7177;48.572;7.838;2022-12-13T00:19:09;-4.90;99.90
14192;DHT22;7177;48.572;7.838;2022-12-13T00:21:35;-4.90;99.90
14192;DHT22;7177;48.572;7.838;2022-12-13T00:24:01;-5.00;99.90
14192;DHT22;7177;48.572;7.838;2022-12-13T00:26:31;-5.00;99.90
14192;DHT22;7177;48.572;7.838;2022-12-13T00:29:00;-4.90;99.90
14192;DHT22;7177;48.572;7.838;2022-12-13T00:31:27;-4.90;99.90
14192;DHT22;7177;48.572;7.838;2022-12-13T00:33:55;-4.80;99.90
14192;DHT22;7177;48.572;7.838;2022-12-13T00:36:20;-4.90;99.90
14192;DHT22;7177;48.572;7.838;2022-12-13T00:38:46;-4.80;99.90
14192;DHT22;7177;48.572;7.838;2022-12-13T00:41:25;-4.80;99.90
14192;DHT22;7177;48.572;7.838;2022-12-13T00:43:50;-4.70;99.90
14192;DHT22;7177;48.572;7.838;2022-12-13T00:46:18;-4.60;99.90
14192;DHT22;7177;48.572;7.838;2022-12-13T00:48:48;-4.70;99.90
14192;DHT22;7177;48.572;7.838;2022-12-13T00:51:14;-4.70;99.90
14192;DHT22;7177;48.572;7.838;2022-12-13T00:53:40;-4.60;99.90
14192;DHT22;7177;48.572;7.838;2022-12-13T00:56:13;-4.70;99.90
14192;DHT22;7177;48.572;7.838;2022-12-13T00:58:40;-4.70;99.90
14192;DHT22;7177;48.572;7.838;2022-12-13T01:01:11;-4.70;99.90
14192;DHT22;7177;48.572;7.838;2022-12-13T01:03:37;-4.70;99.90
14192;DHT22;7177;48.572;7.838;2022-12-13T01:06:21;-4.80;99.90
14192;DHT22;7177;48.572;7.838;2022-12-13T01:08:47;-4.80;99.90
14192;DHT22;7177;48.572;7.838;2022-12-13T01:11:14;-4.70;99.90
14192;DHT22;7177;48.572;7.838;2022-12-13T01:13:39;-4.70;99.90
14192;DHT22;7177;48.572;7.838;2022-12-13T01:16:07;-4.80;99.90
14192;DHT22;7177;48.572;7.838;2022-12-13T01:18:33;-4.80;99.90
14192;DHT22;7177;48.572;7.838;2022-12-13T01:21:09;-4.80;99.90
14192;DHT22;7177;48.572;7.838;2022-12-13T01:23:35;-4.70;99.90
14192;DHT22;7177;48.572;7.838;2022-12-13T01:26:04;-4.70;99.90
14192;DHT22;7177;48.572;7.838;2022-12-13T01:28:31;-4.70;99.90
14192;DHT22;7177;48.572;7.838;2022-12-13T01:31:08;-4.60;99.90
14192;DHT22;7177;48.572;7.838;2022-12-13T01:33:34;-4.70;99.90
14192;DHT22;7177;48.572;7.838;2022-12-13T01:36:01;-4.60;99.90
14192;DHT22;7177;48.572;7.838;2022-12-13T01:38:27;-4.60;99.90
14192;DHT22;7177;48.572;7.838;2022-12-13T01:40:53;-4.60;99.90
14192;DHT22;7177;48.572;7.838;2022-12-13T01:46:01;-4.60;99.90
14192;DHT22;7177;48.572;7.838;2022-12-13T01:48:30;-4.70;99.90
14192;DHT22;7177;48.572;7.838;2022-12-13T01:51:01;-4.60;99.90
14192;DHT22;7177;48.572;7.838;2022-12-13T01:53:32;-4.60;99.90
14192;DHT22;7177;48.572;7.838;2022-12-13T01:56:29;-4.60;99.90
14192;DHT22;7177;48.572;7.838;2022-12-13T01:58:56;-4.60;99.90
14192;DHT22;7177;48.572;7.838;2022-12-13T02:01:24;-4.70;99.90
14192;DHT22;7177;48.572;7.838;2022-12-13T02:03:50;-4.70;99.90
14192;DHT22;7177;48.572;7.838;2022-12-13T02:06:18;-4.70;99.90
14192;DHT22;7177;48.572;7.838;2022-12-13T02:08:48;-4.70;99.90
14192;DHT22;7177;48.572;7.838;2022-12-13T02:11:14;-4.70;99.90
14192;DHT22;7177;48.572;7.838;2022-12-13T02:13:40;-4.80;99.90
14192;DHT22;7177;48.572;7.838;2022-12-13T02:16:15;-4.90;99.90
14192;DHT22;7177;48.572;7.838;2022-12-13T02:19:24;-4.90;99.90
14192;DHT22;7177;48.572;7.838;2022-12-13T02:22:23;-4.80;99.90
14192;DHT22;7177;48.572;7.838;2022-12-13T02:27:39;-4.70;99.90
14192;DHT22;7177;48.572;7.838;2022-12-13T02:30:25;-4.70;99.90
14192;DHT22;7177;48.572;7.838;2022-12-13T02:33:20;-4.70;99.90
14192;DHT22;7177;48.572;7.838;2022-12-13T02:36:05;-4.70;99.90
14192;DHT22;7177;48.572;7.838;2022-12-13T02:38:55;-4.80;99.90
14192;DHT22;7177;48.572;7.838;2022-12-13T02:43:56;-4.80;99.90
14192;DHT22;7177;48.572;7.838;2022-12-13T02:46:24;-4.80;99.90
14192;DHT22;7177;48.572;7.838;2022-12-13T02:48:51;-4.90;99.90
14192;DHT22;7177;48.572;7.838;2022-12-13T02:51:20;-4.90;99.90
14192;DHT22;7177;48.572;7.838;2022-12-13T02:53:46;-4.90;99.90
14192;DHT22;7177;48.572;7.838;2022-12-13T02:56:12;-5.00;99.90
14192;DHT22;7177;48.572;7.838;2022-12-13T02:58:44;-5.00;99.90
14192;DHT22;7177;48.572;7.838;2022-12-13T03:06:41;-5.10;99.90
14192;DHT22;7177;48.572;7.838;2022-12-13T03:09:25;-5.20;99.90
14192;DHT22;7177;48.572;7.838;2022-12-13T03:12:17;-5.30;99.90
14192;DHT22;7177;48.572;7.838;2022-12-13T03:15:37;-5.40;99.90
14192;DHT22;7177;48.572;7.838;2022-12-13T03:17:59;-5.40;99.90
14192;DHT22;7177;48.572;7.838;2022-12-13T03:20:27;-5.50;99.90
14192;DHT22;7177;48.572;7.838;2022-12-13T03:22:54;-5.50;99.90
14192;DHT22;7177;48.572;7.838;2022-12-13T03:25:22;-5.50;99.90
14192;DHT22;7177;48.572;7.838;2022-12-13T03:27:48;-5.60;99.90
14192;DHT22;7177;48.572;7.838;2022-12-13T03:30:14;-5.60;99.90
14192;DHT22;7177;48.572;7.838;2022-12-13T03:32:39;-5.70;99.90
14192;DHT22;7177;48.572;7.838;2022-12-13T03:35:05;-5.70;99.90
14192;DHT22;7177;48.572;7.838;2022-12-13T03:37:31;-5.80;99.90
14192;DHT22;7177;48.572;7.838;2022-12-13T03:39:57;-5.80;99.90
14192;DHT22;7177;48.572;7.838;2022-12-13T03:42:23;-5.80;99.90
14192;DHT22;7177;48.572;7.838;2022-12-13T03:44:49;-5.90;99.90
14192;DHT22;7177;48.572;7.838;2022-12-13T03:47:14;-5.90;99.90
14192;DHT22;7177;48.572;7.838;2022-12-13T03:49:41;-4.60;99.90
14192;DHT22;7177;48.572;7.838;2022-12-13T03:52:07;-5.90;99.90
14192;DHT22;7177;48.572;7.838;2022-12-13T03:54:32;-5.80;99.90
14192;DHT22;7177;48.572;7.838;2022-12-13T03:56:58;-5.80;99.90
14192;DHT22;7177;48.572;7.838;2022-12-13T03:59:24;-5.80;99.90
14192;DHT22;7177;48.572;7.838;2022-12-13T04:01:49;-5.80;99.90
14192;DHT22;7177;48.572;7.838;2022-12-13T04:04:15;-5.80;99.90
14192;DHT22;7177;48.572;7.838;2022-12-13T04:06:40;-5.70;99.90
14192;DHT22;7177;48.572;7.838;2022-12-13T04:09:06;-5.80;99.90
14192;DHT22;7177;48.572;7.838;2022-12-13T04:11:31;-5.70;99.90
14192;DHT22;7177;48.572;7.838;2022-12-13T04:14:16;-5.80;99.90
14192;DHT22;7177;48.572;7.838;2022-12-13T04:16:41;-5.80;99.90
14192;DHT22;7177;48.572;7.838;2022-12-13T04:19:07;-5.70;99.90
14192;DHT22;7177;48.572;7.838;2022-12-13T04:21:32;-5.70;99.90
14192;DHT22;7177;48.572;7.838;2022-12-13T04:23:58;-5.70;99.90
14192;DHT22;7177;48.572;7.838;2022-12-13T04:26:23;-5.70;99.90
14192;DHT22;7177;48.572;7.838;2022-12-13T04:28:49;-5.80;99.90
14192;DHT22;7177;48.572;7.838;2022-12-13T04:31:14;-5.80;99.90
14192;DHT22;7177;48.572;7.838;2022-12-13T04:33:40;-6.00;99.90
14192;DHT22;7177;48.572;7.838;2022-12-13T04:36:06;-6.00;99.90
14192;DHT22;7177;48.572;7.838;2022-12-13T04:38:32;-6.10;99.90
14192;DHT22;7177;48.572;7.838;2022-12-13T04:41:14;-6.10;99.90
14192;DHT22;7177;48.572;7.838;2022-12-13T04:43:40;-6.10;99.90
14192;DHT22;7177;48.572;7.838;2022-12-13T04:46:06;-6.00;99.90
14192;DHT22;7177;48.572;7.838;2022-12-13T04:48:32;-6.10;99.90
14192;DHT22;7177;48.572;7.838;2022-12-13T04:50:58;-6.20;99.90
14192;DHT22;7177;48.572;7.838;2022-12-13T04:53:24;-6.10;99.90
14192;DHT22;7177;48.572;7.838;2022-12-13T04:55:50;-6.10;99.90
14192;DHT22;7177;48.572;7.838;2022-12-13T04:58:17;-6.20;99.90
14192;DHT22;7177;48.572;7.838;2022-12-13T05:00:43;-6.20;99.90
14192;DHT22;7177;48.572;7.838;2022-12-13T05:03:08;-6.20;99.90
14192;DHT22;7177;48.572;7.838;2022-12-13T05:05:36;-6.20;99.90
14192;DHT22;7177;48.572;7.838;2022-12-13T05:08:02;-6.20;99.90
14192;DHT22;7177;48.572;7.838;2022-12-13T05:10:27;-6.20;99.90
14192;DHT22;7177;48.572;7.838;2022-12-13T05:12:53;-6.20;99.90
14192;DHT22;7177;48.572;7.838;2022-12-13T05:15:18;-6.20;99.90
14192;DHT22;7177;48.572;7.838;2022-12-13T05:17:44;-6.20;99.90
14192;DHT22;7177;48.572;7.838;2022-12-13T05:20:10;-6.20;99.90
14192;DHT22;7177;48.572;7.838;2022-12-13T05:22:35;-6.20;99.90
14192;DHT22;7177;48.572;7.838;2022-12-13T05:25:03;-6.20;99.90
14192;DHT22;7177;48.572;7.838;2022-12-13T05:27:28;-6.20;99.90
14192;DHT22;7177;48.572;7.838;2022-12-13T05:29:54;-6.10;99.90
14192;DHT22;7177;48.572;7.838;2022-12-13T05:32:20;-6.10;99.90
14192;DHT22;7177;48.572;7.838;2022-12-13T05:34:46;-6.10;99.90
14192;DHT22;7177;48.572;7.838;2022-12-13T05:37:11;-6.10;99.90
14192;DHT22;7177;48.572;7.838;2022-12-13T05:39:37;-6.30;99.90
14192;DHT22;7177;48.572;7.838;2022-12-13T05:42:02;-6.30;99.90
14192;DHT22;7177;48.572;7.838;2022-12-13T05:44:29;-6.40;99.90
14192;DHT22;7177;48.572;7.838;2022-12-13T05:46:55;-6.30;99.90
14192;DHT22;7177;48.572;7.838;2022-12-13T05:49:21;-5.10;99.90
14192;DHT22;7177;48.572;7.838;2022-12-13T05:51:46;-4.80;99.90
14192;DHT22;7177;48.572;7.838;2022-12-13T05:54:12;-4.50;99.90
14192;DHT22;7177;48.572;7.838;2022-12-13T05:56:37;-4.40;99.90
14192;DHT22;7177;48.572;7.838;2022-12-13T05:59:03;-4.50;99.90
14192;DHT22;7177;48.572;7.838;2022-12-13T06:01:28;-4.70;99.90
14192;DHT22;7177;48.572;7.838;2022-12-13T06:03:54;-5.00;99.90
14192;DHT22;7177;48.572;7.838;2022-12-13T06:06:20;-5.20;99.90
14192;DHT22;7177;48.572;7.838;2022-12-13T06:08:45;-5.40;99.90
14192;DHT22;7177;48.572;7.838;2022-12-13T06:11:11;-5.60;99.90
14192;DHT22;7177;48.572;7.838;2022-12-13T06:13:36;-5.70;99.90
14192;DHT22;7177;48.572;7.838;2022-12-13T06:16:04;-5.80;99.90
14192;DHT22;7177;48.572;7.838;2022-12-13T06:18:32;-5.90;99.90
14192;DHT22;7177;48.572;7.838;2022-12-13T06:20:59;-6.10;99.90
14192;DHT22;7177;48.572;7.838;2022-12-13T06:23:26;-6.20;99.90
14192;DHT22;7177;48.572;7.838;2022-12-13T06:25:52;-6.30;99.90
14192;DHT22;7177;48.572;7.838;2022-12-13T06:28:17;-6.40;99.90
14192;DHT22;7177;48.572;7.838;2022-12-13T06:30:43;-6.40;99.90
14192;DHT22;7177;48.572;7.838;2022-12-13T06:33:08;-6.40;99.90
14192;DHT22;7177;48.572;7.838;2022-12-13T06:35:36;-6.50;99.90
14192;DHT22;7177;48.572;7.838;2022-12-13T06:38:01;-6.50;99.90
14192;DHT22;7177;48.572;7.838;2022-12-13T06:40:27;-6.60;99.90
14192;DHT22;7177;48.572;7.838;2022-12-13T06:42:52;-6.70;99.90
14192;DHT22;7177;48.572;7.838;2022-12-13T06:45:19;-6.80;99.90
14192;DHT22;7177;48.572;7.838;2022-12-13T06:47:44;-6.80;99.90
14192;DHT22;7177;48.572;7.838;2022-12-13T06:50:10;-6.80;99.90
14192;DHT22;7177;48.572;7.838;2022-12-13T06:52:35;-6.80;99.90
14192;DHT22;7177;48.572;7.838;2022-12-13T06:55:02;-6.80;99.90
14192;DHT22;7177;48.572;7.838;2022-12-13T06:57:27;-6.80;99.90
14192;DHT22;7177;48.572;7.838;2022-12-13T06:59:53;-6.80;99.90
14192;DHT22;7177;48.572;7.838;2022-12-13T07:02:18;-6.70;99.90
14192;DHT22;7177;48.572;7.838;2022-12-13T07:04:44;-6.70;99.90
14192;DHT22;7177;48.572;7.838;2022-12-13T07:07:10;-6.70;99.90
14192;DHT22;7177;48.572;7.838;2022-12-13T07:09:36;-6.80;99.90
14192;DHT22;7177;48.572;7.838;2022-12-13T07:12:01;-6.80;99.90
14192;DHT22;7177;48.572;7.838;2022-12-13T07:14:27;-6.70;99.90
14192;DHT22;7177;48.572;7.838;2022-12-13T07:16:52;-6.80;99.90
14192;DHT22;7177;48.572;7.838;2022-12-13T07:19:18;-6.70;99.90
14192;DHT22;7177;48.572;7.838;2022-12-13T07:21:43;-6.70;99.90
14192;DHT22;7177;48.572;7.838;2022-12-13T07:24:09;-6.60;99.90
14192;DHT22;7177;48.572;7.838;2022-12-13T07:26:34;-6.60;99.90
14192;DHT22;7177;48.572;7.838;2022-12-13T07:29:02;-6.60;99.90
14192;DHT22;7177;48.572;7.838;2022-12-13T07:31:28;-6.50;99.90
14192;DHT22;7177;48.572;7.838;2022-12-13T07:33:53;-6.50;99.90
14192;DHT22;7177;48.572;7.838;2022-12-13T07:36:21;-6.50;99.90
14192;DHT22;7177;48.572;7.838;2022-12-13T07:38:52;-6.40;99.90
14192;DHT22;7177;48.572;7.838;2022-12-13T07:41:17;-6.30;99.90
14192;DHT22;7177;48.572;7.838;2022-12-13T07:43:43;-6.20;99.90
14192;DHT22;7177;48.572;7.838;2022-12-13T07:46:09;-6.10;99.90
14192;DHT22;7177;48.572;7.838;2022-12-13T07:48:35;-6.20;99.90
14192;DHT22;7177;48.572;7.838;2022-12-13T07:51:03;-6.20;99.90
14192;DHT22;7177;48.572;7.838;2022-12-13T07:53:29;-6.10;99.90
14192;DHT22;7177;48.572;7.838;2022-12-13T07:55:55;-6.00;99.90
14192;DHT22;7177;48.572;7.838;2022-12-13T07:58:21;-6.00;99.90
14192;DHT22;7177;48.572;7.838;2022-12-13T08:00:47;-6.00;99.90
14192;DHT22;7177;48.572;7.838;2022-12-13T08:03:14;-5.90;99.90
14192;DHT22;7177;48.572;7.838;2022-12-13T08:05:39;-5.90;99.90
14192;DHT22;7177;48.572;7.838;2022-12-13T08:08:07;-5.80;99.90
14192;DHT22;7177;48.572;7.838;2022-12-13T08:10:34;-5.70;99.90
14192;DHT22;7177;48.572;7.838;2022-12-13T08:13:03;-5.60;99.90
14192;DHT22;7177;48.572;7.838;2022-12-13T08:15:29;-5.60;99.90
14192;DHT22;7177;48.572;7.838;2022-12-13T08:17:56;-5.60;99.90
14192;DHT22;7177;48.572;7.838;2022-12-13T08:20:21;-5.50;99.90
14192;DHT22;7177;48.572;7.838;2022-12-13T08:22:55;-5.20;99.90
14192;DHT22;7177;48.572;7.838;2022-12-13T08:25:20;-4.80;99.90
14192;DHT22;7177;48.572;7.838;2022-12-13T08:27:46;-4.50;99.90
14192;DHT22;7177;48.572;7.838;2022-12-13T08:30:12;-4.50;99.90
14192;DHT22;7177;48.572;7.838;2022-12-13T08:32:37;-4.40;99.90
14192;DHT22;7177;48.572;7.838;2022-12-13T08:35:03;-4.50;99.90
14192;DHT22;7177;48.572;7.838;2022-12-13T08:37:29;-4.50;99.90
14192;DHT22;7177;48.572;7.838;2022-12-13T08:39:54;-4.50;99.90
14192;DHT22;7177;48.572;7.838;2022-12-13T08:42:20;-4.50;99.90
14192;DHT22;7177;48.572;7.838;2022-12-13T08:44:47;-4.50;99.90
14192;DHT22;7177;48.572;7.838;2022-12-13T08:47:13;-4.20;99.90
14192;DHT22;7177;48.572;7.838;2022-12-13T08:49:38;-3.90;99.90
14192;DHT22;7177;48.572;7.838;2022-12-13T08:52:05;-3.80;99.90
14192;DHT22;7177;48.572;7.838;2022-12-13T08:54:32;-3.80;99.90
14192;DHT22;7177;48.572;7.838;2022-12-13T08:56:58;-3.80;99.90
14192;DHT22;7177;48.572;7.838;2022-12-13T08:59:23;-3.80;99.90
14192;DHT22;7177;48.572;7.838;2022-12-13T09:01:50;-3.80;99.90
14192;DHT22;7177;48.572;7.838;2022-12-13T09:04:16;-3.90;99.90
14192;DHT22;7177;48.572;7.838;2022-12-13T09:06:42;-4.10;99.90
14192;DHT22;7177;48.572;7.838;2022-12-13T09:09:08;-3.80;99.90
14192;DHT22;7177;48.572;7.838;2022-12-13T09:11:33;-3.70;99.90
14192;DHT22;7177;48.572;7.838;2022-12-13T09:13:59;-3.50;99.90
14192;DHT22;7177;48.572;7.838;2022-12-13T09:16:25;-3.30;99.90
14192;DHT22;7177;48.572;7.838;2022-12-13T09:18:51;-3.30;99.90
14192;DHT22;7177;48.572;7.838;2022-12-13T09:21:17;-3.30;99.90
14192;DHT22;7177;48.572;7.838;2022-12-13T09:23:43;-3.30;99.90
14192;DHT22;7177;48.572;7.838;2022-12-13T09:26:14;-3.20;99.90
14192;DHT22;7177;48.572;7.838;2022-12-13T09:28:41;-3.10;99.90
14192;DHT22;7177;48.572;7.838;2022-12-13T09:31:15;-3.10;99.90
14192;DHT22;7177;48.572;7.838;2022-12-13T09:33:41;-3.20;99.90
14192;DHT22;7177;48.572;7.838;2022-12-13T09:36:10;-3.20;99.90
14192;DHT22;7177;48.572;7.838;2022-12-13T09:38:36;-3.10;99.90
14192;DHT22;7177;48.572;7.838;2022-12-13T09:41:31;-3.00;99.90
14192;DHT22;7177;48.572;7.838;2022-12-13T09:44:03;-2.80;99.90
14192;DHT22;7177;48.572;7.838;2022-12-13T09:46:41;-2.50;99.90
14192;DHT22;7177;48.572;7.838;2022-12-13T09:49:13;-2.20;99.90
14192;DHT22;7177;48.572;7.838;2022-12-13T09:51:40;-2.20;99.90
14192;DHT22;7177;48.572;7.838;2022-12-13T09:54:06;-2.20;99.90
14192;DHT22;7177;48.572;7.838;2022-12-13T09:56:32;-2.00;99.90
14192;DHT22;7177;48.572;7.838;2022-12-13T09:59:01;-1.90;99.90
14192;DHT22;7177;48.572;7.838;2022-12-13T10:01:28;-1.80;99.90
14192;DHT22;7177;48.572;7.838;2022-12-13T10:03:54;-1.70;99.90
14192;DHT22;7177;48.572;7.838;2022-12-13T10:06:24;-1.50;99.90
14192;DHT22;7177;48.572;7.838;2022-12-13T10:08:56;-1.40;99.90
14192;DHT22;7177;48.572;7.838;2022-12-13T10:11:22;-1.20;99.90
14192;DHT22;7177;48.572;7.838;2022-12-13T10:13:56;-1.10;99.90
14192;DHT22;7177;48.572;7.838;2022-12-13T10:21:45;-0.90;99.90
14192;DHT22;7177;48.572;7.838;2022-12-13T10:24:18;-1.00;99.90
14192;DHT22;7177;48.572;7.838;2022-12-13T10:26:47;-1.00;99.90
14192;DHT22;7177;48.572;7.838;2022-12-13T10:29:13;-0.90;99.90
14192;DHT22;7177;48.572;7.838;2022-12-13T10:31:47;-0.70;99.90
14192;DHT22;7177;48.572;7.838;2022-12-13T10:34:33;-0.60;99.90
14192;DHT22;7177;48.572;7.838;2022-12-13T10:39:47;-0.20;99.90
14192;DHT22;7177;48.572;7.838;2022-12-13T10:42:18;-0.30;99.90
14192;DHT22;7177;48.572;7.838;2022-12-13T10:44:44;-0.40;99.90
14192;DHT22;7177;48.572;7.838;2022-12-13T10:47:22;-0.30;99.90
14192;DHT22;7177;48.572;7.838;2022-12-13T10:49:54;-0.20;99.90
14192;DHT22;7177;48.572;7.838;2022-12-13T10:52:37;-0.10;99.90
14192;DHT22;7177;48.572;7.838;2022-12-13T10:55:33;0.10;99.90
14192;DHT22;7177;48.572;7.838;2022-12-13T10:58:03;0.10;99.90
14192;DHT22;7177;48.572;7.838;2022-12-13T11:00:43;0.10;99.90
14192;DHT22;7177;48.572;7.838;2022-12-13T11:03:31;0.00;99.90
14192;DHT22;7177;48.572;7.838;2022-12-13T11:06:08;0.00;99.90
14192;DHT22;7177;48.572;7.838;2022-12-13T11:08:37;0.30;99.90
14192;DHT22;7177;48.572;7.838;2022-12-13T11:11:04;0.40;99.90
14192;DHT22;7177;48.572;7.838;2022-12-13T11:16:22;0.50;99.90
14192;DHT22;7177;48.572;7.838;2022-12-13T11:18:56;0.50;99.90
14192;DHT22;7177;48.572;7.838;2022-12-13T11:21:24;0.70;99.90
14192;DHT22;7177;48.572;7.838;2022-12-13T11:23:53;0.60;99.90
14192;DHT22;7177;48.572;7.838;2022-12-13T11:26:23;0.70;99.90
14192;DHT22;7177;48.572;7.838;2022-12-13T11:29:38;0.80;99.90
14192;DHT22;7177;48.572;7.838;2022-12-13T11:35:19;0.60;99.90
14192;DHT22;7177;48.572;7.838;2022-12-13T11:38:23;0.70;99.90
14192;DHT22;7177;48.572;7.838;2022-12-13T11:43:43;0.70;99.90
14192;DHT22;7177;48.572;7.838;2022-12-13T11:46:40;0.80;99.90
14192;DHT22;7177;48.572;7.838;2022-12-13T11:49:18;0.70;99.90
14192;DHT22;7177;48.572;7.838;2022-12-13T11:51:54;0.60;99.90
14192;DHT22;7177;48.572;7.838;2022-12-13T11:54:52;0.50;99.90
14192;DHT22;7177;48.572;7.838;2022-12-13T11:57:43;0.60;99.90
14192;DHT22;7177;48.572;7.838;2022-12-13T12:00:29;0.80;99.90
14192;DHT22;7177;48.572;7.838;2022-12-13T12:05:35;1.30;99.90
14192;DHT22;7177;48.572;7.838;2022-12-13T12:11:02;2.00;99.90
14192;DHT22;7177;48.572;7.838;2022-12-13T12:13:46;2.00;99.90
14192;DHT22;7177;48.572;7.838;2022-12-13T12:16:48;2.20;99.90
14192;DHT22;7177;48.572;7.838;2022-12-13T12:19:21;2.20;99.90
14192;DHT22;7177;48.572;7.838;2022-12-13T12:22:22;2.20;99.90
14192;DHT22;7177;48.572;7.838;2022-12-13T12:33:39;3.00;99.90
14192;DHT22;7177;48.572;7.838;2022-12-13T12:44:25;2.10;99.90
14192;DHT22;7177;48.572;7.838;2022-12-13T12:58:12;2.00;99.90
14192;DHT22;7177;48.572;7.838;2022-12-13T13:03:31;2.30;99.90
14192;DHT22;7177;48.572;7.838;2022-12-13T13:06:12;2.50;99.90
14192;DHT22;7177;48.572;7.838;2022-12-13T13:08:49;2.30;99.90
14192;DHT22;7177;48.572;7.838;2022-12-13T13:11:16;2.30;99.90
14192;DHT22;7177;48.572;7.838;2022-12-13T13:16:30;2.10;99.90
14192;DHT22;7177;48.572;7.838;2022-12-13T13:18:59;2.10;99.90
14192;DHT22;7177;48.572;7.838;2022-12-13T13:21:37;2.20;99.90
14192;DHT22;7177;48.572;7.838;2022-12-13T13:26:35;2.40;99.90
14192;DHT22;7177;48.572;7.838;2022-12-13T13:34:45;2.20;99.90
14192;DHT22;7177;48.572;7.838;2022-12-13T13:42:23;1.70;99.90
14192;DHT22;7177;48.572;7.838;2022-12-13T13:50:00;1.40;99.90
14192;DHT22;7177;48.572;7.838;2022-12-13T13:55:32;1.40;99.90
14192;DHT22;7177;48.572;7.838;2022-12-13T14:07:09;0.70;99.90
14192;DHT22;7177;48.572;7.838;2022-12-13T14:21:24;0.50;99.90
14192;DHT22;7177;48.572;7.838;2022-12-13T14:29:27;0.60;99.90
14192;DHT22;7177;48.572;7.838;2022-12-13T14:31:54;0.70;99.90
14192;DHT22;7177;48.572;7.838;2022-12-13T14:34:30;0.80;99.90
14192;DHT22;7177;48.572;7.838;2022-12-13T14:37:02;0.80;99.90
14192;DHT22;7177;48.572;7.838;2022-12-13T14:39:28;0.90;99.90
14192;DHT22;7177;48.572;7.838;2022-12-13T14:41:57;0.90;99.90
14192;DHT22;7177;48.572;7.838;2022-12-13T14:44:28;0.80;99.90
14192;DHT22;7177;48.572;7.838;2022-12-13T14:47:06;0.80;99.90
14192;DHT22;7177;48.572;7.838;2022-12-13T14:49:35;0.80;99.90
14192;DHT22;7177;48.572;7.838;2022-12-13T14:52:07;0.70;99.90
14192;DHT22;7177;48.572;7.838;2022-12-13T14:57:15;0.60;99.90
14192;DHT22;7177;48.572;7.838;2022-12-13T14:59:45;0.40;99.90
14192;DHT22;7177;48.572;7.838;2022-12-13T15:02:14;0.40;99.90
14192;DHT22;7177;48.572;7.838;2022-12-13T15:04:40;0.30;99.90
14192;DHT22;7177;48.572;7.838;2022-12-13T15:09:57;0.20;99.90
14192;DHT22;7177;48.572;7.838;2022-12-13T15:12:24;0.20;99.90
14192;DHT22;7177;48.572;7.838;2022-12-13T15:15:01;0.20;99.90
14192;DHT22;7177;48.572;7.838;2022-12-13T15:17:36;0.10;99.90
14192;DHT22;7177;48.572;7.838;2022-12-13T15:20:26;0.00;99.90
14192;DHT22;7177;48.572;7.838;2022-12-13T15:23:01;-0.10;99.90
14192;DHT22;7177;48.572;7.838;2022-12-13T15:25:30;-0.20;99.90
14192;DHT22;7177;48.572;7.838;2022-12-13T15:27:57;-0.40;99.90
14192;DHT22;7177;48.572;7.838;2022-12-13T15:30:22;-0.50;99.90
14192;DHT22;7177;48.572;7.838;2022-12-13T15:33:17;-0.60;99.90
14192;DHT22;7177;48.572;7.838;2022-12-13T15:35:43;-0.60;99.90
14192;DHT22;7177;48.572;7.838;2022-12-13T15:38:12;-0.60;99.90
14192;DHT22;7177;48.572;7.838;2022-12-13T15:40:43;-0.60;99.90
14192;DHT22;7177;48.572;7.838;2022-12-13T15:43:21;-0.60;99.90
14192;DHT22;7177;48.572;7.838;2022-12-13T15:45:49;-0.60;99.90
14192;DHT22;7177;48.572;7.838;2022-12-13T15:48:26;-0.70;99.90
14192;DHT22;7177;48.572;7.838;2022-12-13T15:51:12;-0.80;99.90
14192;DHT22;7177;48.572;7.838;2022-12-13T15:53:58;-0.90;99.90
14192;DHT22;7177;48.572;7.838;2022-12-13T15:57:10;-0.90;99.90
14192;DHT22;7177;48.572;7.838;2022-12-13T15:59:32;-0.80;99.90
14192;DHT22;7177;48.572;7.838;2022-12-13T16:01:58;-0.80;99.90
14192;DHT22;7177;48.572;7.838;2022-12-13T16:04:26;-0.70;99.90
14192;DHT22;7177;48.572;7.838;2022-12-13T16:06:53;-0.70;99.90
14192;DHT22;7177;48.572;7.838;2022-12-13T16:09:21;-0.70;99.90
14192;DHT22;7177;48.572;7.838;2022-12-13T16:11:52;-0.70;99.90
14192;DHT22;7177;48.572;7.838;2022-12-13T16:14:46;-0.70;99.90
14192;DHT22;7177;48.572;7.838;2022-12-13T16:17:24;-0.70;99.90
14192;DHT22;7177;48.572;7.838;2022-12-13T16:19:51;-0.80;99.90
14192;DHT22;7177;48.572;7.838;2022-12-13T16:22:17;-0.90;99.90
14192;DHT22;7177;48.572;7.838;2022-12-13T16:24:46;-0.80;99.90
14192;DHT22;7177;48.572;7.838;2022-12-13T16:27:12;-0.80;99.90
14192;DHT22;7177;48.572;7.838;2022-12-13T16:29:38;-0.80;99.90
14192;DHT22;7177;48.572;7.838;2022-12-13T16:32:04;-0.80;99.90
14192;DHT22;7177;48.572;7.838;2022-12-13T16:34:29;-0.70;99.90
14192;DHT22;7177;48.572;7.838;2022-12-13T16:36:55;-0.70;99.90
14192;DHT22;7177;48.572;7.838;2022-12-13T16:39:24;-0.70;99.90
14192;DHT22;7177;48.572;7.838;2022-12-13T16:41:49;-0.70;99.90
14192;DHT22;7177;48.572;7.838;2022-12-13T16:44:21;-0.80;99.90
14192;DHT22;7177;48.572;7.838;2022-12-13T16:46:48;-0.80;99.90
14192;DHT22;7177;48.572;7.838;2022-12-13T16:49:23;-0.80;99.90
14192;DHT22;7177;48.572;7.838;2022-12-13T16:51:49;-0.90;99.90
14192;DHT22;7177;48.572;7.838;2022-12-13T16:54:16;-1.00;99.90
14192;DHT22;7177;48.572;7.838;2022-12-13T16:56:42;-0.90;99.90
14192;DHT22;7177;48.572;7.838;2022-12-13T16:59:12;-0.90;99.90
14192;DHT22;7177;48.572;7.838;2022-12-13T17:01:38;-0.90;99.90
14192;DHT22;7177;48.572;7.838;2022-12-13T17:04:03;-0.90;99.90
14192;DHT22;7177;48.572;7.838;2022-12-13T17:06:29;-0.90;99.90
14192;DHT22;7177;48.572;7.838;2022-12-13T17:08:54;-0.90;99.90
14192;DHT22;7177;48.572;7.838;2022-12-13T17:11:20;-0.90;99.90
14192;DHT22;7177;48.572;7.838;2022-12-13T17:13:46;-0.90;99.90
14192;DHT22;7177;48.572;7.838;2022-12-13T17:16:14;-0.90;99.90
14192;DHT22;7177;48.572;7.838;2022-12-13T17:18:40;-0.90;99.90
14192;DHT22;7177;48.572;7.838;2022-12-13T17:21:07;-1.00;99.90
14192;DHT22;7177;48.572;7.838;2022-12-13T17:23:32;-1.00;99.90
14192;DHT22;7177;48.572;7.838;2022-12-13T17:26:06;-1.00;99.90
14192;DHT22;7177;48.572;7.838;2022-12-13T17:28:32;-0.90;99.90
14192;DHT22;7177;48.572;7.838;2022-12-13T17:31:11;-0.90;99.90
14192;DHT22;7177;48.572;7.838;2022-12-13T17:33:38;-0.90;99.90
14192;DHT22;7177;48.572;7.838;2022-12-13T17:36:05;-0.90;99.90
14192;DHT22;7177;48.572;7.838;2022-12-13T17:38:30;-0.90;99.90
14192;DHT22;7177;48.572;7.838;2022-12-13T17:40:56;-1.00;99.90
14192;DHT22;7177;48.572;7.838;2022-12-13T17:43:23;-1.10;99.90
14192;DHT22;7177;48.572;7.838;2022-12-13T17:46:00;-1.20;99.90
14192;DHT22;7177;48.572;7.838;2022-12-13T17:48:26;-1.30;99.90
14192;DHT22;7177;48.572;7.838;2022-12-13T17:50:54;-1.40;99.90
14192;DHT22;7177;48.572;7.838;2022-12-13T17:53:21;-1.40;99.90
14192;DHT22;7177;48.572;7.838;2022-12-13T17:56:13;-1.40;99.90
14192;DHT22;7177;48.572;7.838;2022-12-13T17:58:40;-1.30;99.90
14192;DHT22;7177;48.572;7.838;2022-12-13T18:01:17;-1.30;99.90
14192;DHT22;7177;48.572;7.838;2022-12-13T18:03:43;-1.20;99.90
14192;DHT22;7177;48.572;7.838;2022-12-13T18:06:09;-1.20;99.90
14192;DHT22;7177;48.572;7.838;2022-12-13T18:08:36;-1.20;99.90
14192;DHT22;7177;48.572;7.838;2022-12-13T18:11:03;-1.20;99.90